sensor_id;sensor_type;location;lat;lon;timestamp;temperature;humidity
31113;DHT22;17763;48.730;9.136;2022-09-09T00:00:53;16.90;99.90
31113;DHT22;17763;48.730;9.136;2022-09-09T00:03:24;16.90;99.90
31113;DHT22;17763;48.730;9.136;2022-09-09T00:05:58;16.90;99.90
31113;DHT22;17763;48.730;9.136;2022-09-09T00:11:29;16.90;99.90
31113;DHT22;17763;48.730;9.136;2022-09-09T00:14:03;16.90;99.90
31113;DHT22;17763;48.730;9.136;2022-09-09T00:16:39;16.80;99.90
31113;DHT22;17763;48.730;9.136;2022-09-09T00:24:43;16.80;99.10
31113;DHT22;17763;48.730;9.136;2022-09-09T00:29:51;16.70;98.60
31113;DHT22;17763;48.730;9.136;2022-09-09T00:32:20;16.60;98.50
31113;DHT22;17763;48.730;9.136;2022-09-09T00:35:00;16.70;98.40
31113;DHT22;17763;48.730;9.136;2022-09-09T00:37:29;16.70;98.30
31113;DHT22;17763;48.730;9.136;2022-09-09T00:39:59;16.80;98.20
31113;DHT22;17763;48.730;9.136;2022-09-09T00:47:52;16.80;98.00
31113;DHT22;17763;48.730;9.136;2022-09-09T00:53:53;16.90;98.00
31113;DHT22;17763;48.730;9.136;2022-09-09T00:56:24;16.90;97.90
31113;DHT22;17763;48.730;9.136;2022-09-09T01:01:36;17.10;97.80
31113;DHT22;17763;48.730;9.136;2022-09-09T01:04:09;17.10;97.50
31113;DHT22;17763;48.730;9.136;2022-09-09T01:06:37;17.10;97.50
31113;DHT22;17763;48.730;9.136;2022-09-09T01:09:21;17.20;97.60
31113;DHT22;17763;48.730;9.136;2022-09-09T01:12:14;17.20;97.70
31113;DHT22;17763;48.730;9.136;2022-09-09T01:14:48;17.20;97.70
31113;DHT22;17763;48.730;9.136;2022-09-09T01:17:31;17.20;97.90
31113;DHT22;17763;48.730;9.136;2022-09-09T01:28:21;17.20;98.30
31113;DHT22;17763;48.730;9.136;2022-09-09T01:30:47;17.20;98.30
31113;DHT22;17763;48.730;9.136;2022-09-09T01:33:15;17.10;98.20
31113;DHT22;17763;48.730;9.136;2022-09-09T01:38:14;17.10;97.70
31113;DHT22;17763;48.730;9.136;2022-09-09T01:40:42;17.10;97.70
31113;DHT22;17763;48.730;9.136;2022-09-09T01:43:08;17.10;97.70
31113;DHT22;17763;48.730;9.136;2022-09-09T01:45:34;17.10;97.60
31113;DHT22;17763;48.730;9.136;2022-09-09T01:48:00;17.10;97.60
31113;DHT22;17763;48.730;9.136;2022-09-09T01:50:30;17.10;97.40
31113;DHT22;17763;48.730;9.136;2022-09-09T01:53:00;17.10;97.40
31113;DHT22;17763;48.730;9.136;2022-09-09T01:55:40;17.10;97.20
31113;DHT22;17763;48.730;9.136;2022-09-09T01:58:14;17.00;97.20
31113;DHT22;17763;48.730;9.136;2022-09-09T02:00:48;17.00;97.30
31113;DHT22;17763;48.730;9.136;2022-09-09T02:03:28;17.00;97.40
31113;DHT22;17763;48.730;9.136;2022-09-09T02:08:49;16.90;97.40
31113;DHT22;17763;48.730;9.136;2022-09-09T02:11:21;16.90;97.50
31113;DHT22;17763;48.730;9.136;2022-09-09T02:13:53;16.90;97.60
31113;DHT22;17763;48.730;9.136;2022-09-09T02:16:34;16.90;97.80
31113;DHT22;17763;48.730;9.136;2022-09-09T02:21:46;17.00;97.80
31113;DHT22;17763;48.730;9.136;2022-09-09T02:24:14;16.90;97.80
31113;DHT22;17763;48.730;9.136;2022-09-09T02:26:42;17.00;97.90
31113;DHT22;17763;48.730;9.136;2022-09-09T02:29:16;17.00;98.00
31113;DHT22;17763;48.730;9.136;2022-09-09T02:31:44;17.00;98.10
31113;DHT22;17763;48.730;9.136;2022-09-09T02:34:14;16.90;98.10
31113;DHT22;17763;48.730;9.136;2022-09-09T02:36:42;16.90;98.00
31113;DHT22;17763;48.730;9.136;2022-09-09T02:39:09;16.90;98.10
31113;DHT22;17763;48.730;9.136;2022-09-09T02:41:38;16.90;98.20
31113;DHT22;17763;48.730;9.136;2022-09-09T02:44:25;16.80;98.20
31113;DHT22;17763;48.730;9.136;2022-09-09T02:47:18;16.80;98.30
31113;DHT22;17763;48.730;9.136;2022-09-09T02:52:55;16.80;98.60
31113;DHT22;17763;48.730;9.136;2022-09-09T02:58:02;16.80;98.70
31113;DHT22;17763;48.730;9.136;2022-09-09T03:00:31;16.70;98.80
31113;DHT22;17763;48.730;9.136;2022-09-09T03:02:57;16.70;98.90
31113;DHT22;17763;48.730;9.136;2022-09-09T03:05:25;16.70;99.00
31113;DHT22;17763;48.730;9.136;2022-09-09T03:07:51;16.70;99.10
31113;DHT22;17763;48.730;9.136;2022-09-09T03:10:17;16.60;99.20
31113;DHT22;17763;48.730;9.136;2022-09-09T03:12:45;16.70;99.20
31113;DHT22;17763;48.730;9.136;2022-09-09T03:15:10;16.70;99.20
31113;DHT22;17763;48.730;9.136;2022-09-09T03:17:36;16.70;99.10
31113;DHT22;17763;48.730;9.136;2022-09-09T03:20:03;16.60;99.20
31113;DHT22;17763;48.730;9.136;2022-09-09T03:22:29;16.60;99.40
31113;DHT22;17763;48.730;9.136;2022-09-09T03:24:55;16.50;99.50
31113;DHT22;17763;48.730;9.136;2022-09-09T03:27:20;16.50;99.50
31113;DHT22;17763;48.730;9.136;2022-09-09T03:29:46;16.50;99.70
31113;DHT22;17763;48.730;9.136;2022-09-09T03:32:12;16.40;99.70
31113;DHT22;17763;48.730;9.136;2022-09-09T03:34:38;16.40;99.90
31113;DHT22;17763;48.730;9.136;2022-09-09T03:37:06;16.30;99.90
31113;DHT22;17763;48.730;9.136;2022-09-09T03:39:32;16.30;99.90
31113;DHT22;17763;48.730;9.136;2022-09-09T03:41:57;16.30;99.90
31113;DHT22;17763;48.730;9.136;2022-09-09T03:44:23;16.30;99.90
31113;DHT22;17763;48.730;9.136;2022-09-09T03:46:49;16.30;99.90
31113;DHT22;17763;48.730;9.136;2022-09-09T03:49:14;16.30;99.90
31113;DHT22;17763;48.730;9.136;2022-09-09T03:51:40;16.40;99.90
31113;DHT22;17763;48.730;9.136;2022-09-09T03:54:08;16.40;99.90
31113;DHT22;17763;48.730;9.136;2022-09-09T03:56:36;16.40;99.90
31113;DHT22;17763;48.730;9.136;2022-09-09T03:59:02;16.40;99.90
31113;DHT22;17763;48.730;9.136;2022-09-09T04:01:28;16.30;99.90
31113;DHT22;17763;48.730;9.136;2022-09-09T04:03:56;16.50;99.90
31113;DHT22;17763;48.730;9.136;2022-09-09T04:06:24;16.40;99.90
31113;DHT22;17763;48.730;9.136;2022-09-09T04:08:52;16.40;99.90
31113;DHT22;17763;48.730;9.136;2022-09-09T04:11:18;16.40;99.90
31113;DHT22;17763;48.730;9.136;2022-09-09T04:13:45;16.40;99.90
31113;DHT22;17763;48.730;9.136;2022-09-09T04:16:11;16.40;99.90
31113;DHT22;17763;48.730;9.136;2022-09-09T04:18:38;16.40;99.90
31113;DHT22;17763;48.730;9.136;2022-09-09T04:21:05;16.40;99.90
31113;DHT22;17763;48.730;9.136;2022-09-09T04:23:33;16.40;99.90
31113;DHT22;17763;48.730;9.136;2022-09-09T04:26:03;16.40;99.90
31113;DHT22;17763;48.730;9.136;2022-09-09T04:28:33;16.40;99.90
31113;DHT22;17763;48.730;9.136;2022-09-09T04:31:26;16.30;99.90
31113;DHT22;17763;48.730;9.136;2022-09-09T04:33:52;16.30;99.90
31113;DHT22;17763;48.730;9.136;2022-09-09T04:36:18;16.30;99.90
31113;DHT22;17763;48.730;9.136;2022-09-09T04:38:45;16.30;99.90
31113;DHT22;17763;48.730;9.136;2022-09-09T04:41:11;16.30;99.90
31113;DHT22;17763;48.730;9.136;2022-09-09T04:43:39;16.30;99.90
31113;DHT22;17763;48.730;9.136;2022-09-09T04:46:05;16.30;99.90
31113;DHT22;17763;48.730;9.136;2022-09-09T04:48:31;16.30;99.90
31113;DHT22;17763;48.730;9.136;2022-09-09T04:50:59;16.30;99.90
31113;DHT22;17763;48.730;9.136;2022-09-09T04:53:24;16.30;99.90
31113;DHT22;17763;48.730;9.136;2022-09-09T04:55:51;16.30;99.90
31113;DHT22;17763;48.730;9.136;2022-09-09T04:58:17;16.20;99.90
31113;DHT22;17763;48.730;9.136;2022-09-09T05:00:43;16.20;99.90
31113;DHT22;17763;48.730;9.136;2022-09-09T05:03:11;16.20;99.90
31113;DHT22;17763;48.730;9.136;2022-09-09T05:05:38;16.20;99.90
31113;DHT22;17763;48.730;9.136;2022-09-09T05:08:04;16.10;99.90
31113;DHT22;17763;48.730;9.136;2022-09-09T05:10:33;16.10;99.90
31113;DHT22;17763;48.730;9.136;2022-09-09T05:12:59;16.00;99.90
31113;DHT22;17763;48.730;9.136;2022-09-09T05:15:27;16.00;99.90
31113;DHT22;17763;48.730;9.136;2022-09-09T05:17:57;15.90;99.90
31113;DHT22;17763;48.730;9.136;2022-09-09T05:20:24;16.00;99.90
31113;DHT22;17763;48.730;9.136;2022-09-09T05:22:53;16.00;99.90
31113;DHT22;17763;48.730;9.136;2022-09-09T05:25:21;16.00;99.90
31113;DHT22;17763;48.730;9.136;2022-09-09T05:27:51;16.00;99.90
31113;DHT22;17763;48.730;9.136;2022-09-09T05:30:21;16.00;99.90
31113;DHT22;17763;48.730;9.136;2022-09-09T05:32:48;16.00;99.90
31113;DHT22;17763;48.730;9.136;2022-09-09T05:35:14;16.10;99.90
31113;DHT22;17763;48.730;9.136;2022-09-09T05:37:46;16.10;99.90
31113;DHT22;17763;48.730;9.136;2022-09-09T05:40:13;16.10;99.90
31113;DHT22;17763;48.730;9.136;2022-09-09T05:42:41;16.10;99.90
31113;DHT22;17763;48.730;9.136;2022-09-09T05:45:08;16.10;99.90
31113;DHT22;17763;48.730;9.136;2022-09-09T05:47:34;16.10;99.90
31113;DHT22;17763;48.730;9.136;2022-09-09T05:50:00;16.10;99.90
31113;DHT22;17763;48.730;9.136;2022-09-09T05:52:28;16.10;99.90
31113;DHT22;17763;48.730;9.136;2022-09-09T05:54:54;16.10;99.90
31113;DHT22;17763;48.730;9.136;2022-09-09T05:57:20;16.20;99.90
31113;DHT22;17763;48.730;9.136;2022-09-09T05:59:48;16.20;99.90
31113;DHT22;17763;48.730;9.136;2022-09-09T06:02:15;16.20;99.90
31113;DHT22;17763;48.730;9.136;2022-09-09T06:04:40;16.30;99.90
31113;DHT22;17763;48.730;9.136;2022-09-09T06:07:11;16.30;99.90
31113;DHT22;17763;48.730;9.136;2022-09-09T06:09:38;16.30;99.90
31113;DHT22;17763;48.730;9.136;2022-09-09T06:12:04;16.30;99.90
31113;DHT22;17763;48.730;9.136;2022-09-09T06:14:30;16.30;99.90
31113;DHT22;17763;48.730;9.136;2022-09-09T06:16:58;16.40;99.90
31113;DHT22;17763;48.730;9.136;2022-09-09T06:19:23;16.40;99.90
31113;DHT22;17763;48.730;9.136;2022-09-09T06:21:52;16.40;99.90
31113;DHT22;17763;48.730;9.136;2022-09-09T06:24:17;16.40;99.90
31113;DHT22;17763;48.730;9.136;2022-09-09T06:26:45;16.40;99.90
31113;DHT22;17763;48.730;9.136;2022-09-09T06:29:13;16.40;99.90
31113;DHT22;17763;48.730;9.136;2022-09-09T06:31:41;16.40;99.90
31113;DHT22;17763;48.730;9.136;2022-09-09T06:34:07;16.40;99.90
31113;DHT22;17763;48.730;9.136;2022-09-09T06:36:37;16.40;99.90
31113;DHT22;17763;48.730;9.136;2022-09-09T06:39:06;16.50;99.90
31113;DHT22;17763;48.730;9.136;2022-09-09T06:41:33;16.50;99.90
31113;DHT22;17763;48.730;9.136;2022-09-09T06:43:59;16.50;99.90
31113;DHT22;17763;48.730;9.136;2022-09-09T06:46:28;16.50;99.90
31113;DHT22;17763;48.730;9.136;2022-09-09T06:48:56;16.50;99.90
31113;DHT22;17763;48.730;9.136;2022-09-09T06:51:24;16.60;99.90
31113;DHT22;17763;48.730;9.136;2022-09-09T06:53:52;16.60;99.90
31113;DHT22;17763;48.730;9.136;2022-09-09T06:56:30;16.60;99.90
31113;DHT22;17763;48.730;9.136;2022-09-09T06:58:59;16.60;99.90
31113;DHT22;17763;48.730;9.136;2022-09-09T07:01:31;16.70;99.90
31113;DHT22;17763;48.730;9.136;2022-09-09T07:04:00;16.70;99.90
31113;DHT22;17763;48.730;9.136;2022-09-09T07:06:34;16.80;99.90
31113;DHT22;17763;48.730;9.136;2022-09-09T07:09:02;16.90;99.90
31113;DHT22;17763;48.730;9.136;2022-09-09T07:11:32;16.90;99.90
31113;DHT22;17763;48.730;9.136;2022-09-09T07:13:59;16.90;99.90
31113;DHT22;17763;48.730;9.136;2022-09-09T07:16:27;16.90;99.90
31113;DHT22;17763;48.730;9.136;2022-09-09T07:18:54;16.80;99.90
31113;DHT22;17763;48.730;9.136;2022-09-09T07:21:31;16.90;99.90
31113;DHT22;17763;48.730;9.136;2022-09-09T07:23:57;16.90;99.90
31113;DHT22;17763;48.730;9.136;2022-09-09T07:26:30;16.90;99.90
31113;DHT22;17763;48.730;9.136;2022-09-09T07:28:56;16.90;99.90
31113;DHT22;17763;48.730;9.136;2022-09-09T07:31:26;17.00;99.90
31113;DHT22;17763;48.730;9.136;2022-09-09T07:33:52;17.00;99.90
31113;DHT22;17763;48.730;9.136;2022-09-09T07:36:21;17.00;99.90
31113;DHT22;17763;48.730;9.136;2022-09-09T07:38:50;17.00;99.90
31113;DHT22;17763;48.730;9.136;2022-09-09T07:44:07;17.10;99.90
31113;DHT22;17763;48.730;9.136;2022-09-09T07:46:36;17.10;99.90
31113;DHT22;17763;48.730;9.136;2022-09-09T07:49:02;17.20;99.90
31113;DHT22;17763;48.730;9.136;2022-09-09T07:51:33;17.20;99.90
31113;DHT22;17763;48.730;9.136;2022-09-09T07:54:06;17.20;99.90
31113;DHT22;17763;48.730;9.136;2022-09-09T07:56:32;17.40;99.90
31113;DHT22;17763;48.730;9.136;2022-09-09T07:58:59;17.40;99.90
31113;DHT22;17763;48.730;9.136;2022-09-09T08:01:35;17.40;99.90
31113;DHT22;17763;48.730;9.136;2022-09-09T08:04:06;17.50;99.90
31113;DHT22;17763;48.730;9.136;2022-09-09T08:06:43;17.60;99.90
31113;DHT22;17763;48.730;9.136;2022-09-09T08:09:10;17.60;99.90
31113;DHT22;17763;48.730;9.136;2022-09-09T08:11:36;17.70;99.90
31113;DHT22;17763;48.730;9.136;2022-09-09T08:14:03;17.70;99.90
31113;DHT22;17763;48.730;9.136;2022-09-09T08:16:31;17.90;99.90
31113;DHT22;17763;48.730;9.136;2022-09-09T08:18:58;17.90;99.90
31113;DHT22;17763;48.730;9.136;2022-09-09T08:21:26;18.00;99.90
31113;DHT22;17763;48.730;9.136;2022-09-09T08:23:54;18.10;99.90
31113;DHT22;17763;48.730;9.136;2022-09-09T08:26:25;18.10;99.90
31113;DHT22;17763;48.730;9.136;2022-09-09T08:28:53;18.20;99.90
31113;DHT22;17763;48.730;9.136;2022-09-09T08:31:22;18.20;99.90
31113;DHT22;17763;48.730;9.136;2022-09-09T08:33:48;18.30;99.90
31113;DHT22;17763;48.730;9.136;2022-09-09T08:36:18;18.30;99.90
31113;DHT22;17763;48.730;9.136;2022-09-09T08:38:51;18.30;99.90
